Time;durP1;ratioP1;P1;durP2;ratioP2;P2;SDS_P1;SDS_P2;PMS_P1;PMS_P2;Temp;Humidity;BMP_temperature;BMP_pressure;BME280_temperature;BME280_humidity;BME280_pressure;Samples;Min_cycle;Max_cycle;Signal;HPM_P1;HPM_P2
2022/07/09 00:01:13;;;;;;;;;;;17.70;99.90;;;;;;5076792;28;19924;-87
2022/07/09 00:03:38;;;;;;;;;;;17.70;99.90;;;;;;5077555;28;19924;-88
2022/07/09 00:06:04;;;;;;;;;;;17.70;99.90;;;;;;5093618;28;19931;-87
2022/07/09 00:08:30;;;;;;;;;;;17.60;99.90;;;;;;5076669;28;19924;-87
2022/07/09 00:10:55;;;;;;;;;;;17.70;99.90;;;;;;5076808;28;19928;-84
2022/07/09 00:13:21;;;;;;;;;;;17.60;99.90;;;;;;5076011;28;19931;-86
2022/07/09 00:15:47;;;;;;;;;;;17.60;99.90;;;;;;5093519;28;19924;-87
2022/07/09 00:18:12;;;;;;;;;;;17.60;99.90;;;;;;5078130;28;19979;-86
2022/07/09 00:20:38;;;;;;;;;;;17.60;99.90;;;;;;5078233;28;19946;-86
2022/07/09 00:23:03;;;;;;;;;;;17.60;99.90;;;;;;5111252;28;19932;-87
2022/07/09 00:25:29;;;;;;;;;;;17.60;99.90;;;;;;5094384;28;20276;-86
2022/07/09 00:27:55;;;;;;;;;;;17.60;99.90;;;;;;5094265;28;19947;-87
2022/07/09 00:30:20;;;;;;;;;;;17.60;99.90;;;;;;5077097;28;19924;-86
2022/07/09 00:32:46;;;;;;;;;;;17.60;99.90;;;;;;5077085;28;19931;-87
2022/07/09 00:35:11;;;;;;;;;;;17.60;99.90;;;;;;5077018;28;19924;-87
2022/07/09 00:37:37;;;;;;;;;;;17.60;99.90;;;;;;5093993;28;19924;-87
2022/07/09 00:40:03;;;;;;;;;;;17.60;99.90;;;;;;5077148;28;19968;-86
2022/07/09 00:42:28;;;;;;;;;;;17.60;99.90;;;;;;5093997;28;19990;-87
2022/07/09 00:44:54;;;;;;;;;;;17.60;99.90;;;;;;5093077;28;19924;-87
2022/07/09 00:47:19;;;;;;;;;;;17.60;99.90;;;;;;5093304;28;19925;-86
2022/07/09 00:49:45;;;;;;;;;;;17.60;99.90;;;;;;5093606;28;20354;-86
2022/07/09 00:52:12;;;;;;;;;;;17.60;99.90;;;;;;5093697;28;20014;-87
2022/07/09 00:54:39;;;;;;;;;;;17.60;99.90;;;;;;5076927;28;19932;-87
2022/07/09 00:57:06;;;;;;;;;;;17.60;99.90;;;;;;5077260;28;19953;-87
2022/07/09 00:59:33;;;;;;;;;;;17.60;99.90;;;;;;5077177;28;20280;-86
2022/07/09 01:01:59;;;;;;;;;;;17.60;99.90;;;;;;5094053;28;19982;-86
2022/07/09 01:04:25;;;;;;;;;;;17.60;99.90;;;;;;5093698;28;19924;-87
2022/07/09 01:06:50;;;;;;;;;;;17.60;99.90;;;;;;5076780;28;19947;-86
2022/07/09 01:09:16;;;;;;;;;;;17.60;99.90;;;;;;5092920;28;20024;-83
2022/07/09 01:11:42;;;;;;;;;;;17.50;99.90;;;;;;5093813;28;19924;-86
2022/07/09 01:14:07;;;;;;;;;;;17.50;99.90;;;;;;5093386;28;19924;-84
2022/07/09 01:16:34;;;;;;;;;;;17.50;99.90;;;;;;5075569;28;20420;-84
2022/07/09 01:18:59;;;;;;;;;;;17.50;99.90;;;;;;5075929;28;19932;-83
2022/07/09 01:21:25;;;;;;;;;;;17.40;99.90;;;;;;5075614;28;20330;-83
2022/07/09 01:23:51;;;;;;;;;;;17.40;99.90;;;;;;5110610;28;19932;-84
2022/07/09 01:26:19;;;;;;;;;;;17.30;99.90;;;;;;5096735;28;19973;-83
2022/07/09 01:28:45;;;;;;;;;;;17.30;99.90;;;;;;5096491;28;19920;-83
2022/07/09 01:31:11;;;;;;;;;;;17.30;99.90;;;;;;5080488;28;19930;-84
2022/07/09 01:33:36;;;;;;;;;;;17.30;99.90;;;;;;5097087;28;19925;-83
2022/07/09 01:36:02;;;;;;;;;;;17.30;99.90;;;;;;5096389;28;19925;-84
2022/07/09 01:38:27;;;;;;;;;;;17.30;99.90;;;;;;5079828;28;19946;-85
2022/07/09 01:40:53;;;;;;;;;;;17.20;99.90;;;;;;5079610;28;19924;-85
2022/07/09 01:43:18;;;;;;;;;;;17.20;99.90;;;;;;5079367;28;19935;-85
2022/07/09 01:45:44;;;;;;;;;;;17.10;99.90;;;;;;5080400;28;19973;-84
2022/07/09 01:48:10;;;;;;;;;;;17.00;99.90;;;;;;5079725;28;20383;-84
2022/07/09 01:50:35;;;;;;;;;;;17.10;99.90;;;;;;5096371;28;19928;-84
2022/07/09 01:53:01;;;;;;;;;;;17.00;99.90;;;;;;5079529;28;19930;-84
2022/07/09 01:55:26;;;;;;;;;;;17.00;99.90;;;;;;5079183;28;19928;-85
2022/07/09 01:57:52;;;;;;;;;;;17.00;99.90;;;;;;5079238;28;20309;-84
2022/07/09 02:00:19;;;;;;;;;;;17.00;99.90;;;;;;5096139;28;19924;-83
2022/07/09 02:02:44;;;;;;;;;;;17.00;99.90;;;;;;5096124;28;19924;-84
2022/07/09 02:05:10;;;;;;;;;;;17.00;99.90;;;;;;5079095;28;20278;-84
2022/07/09 02:07:36;;;;;;;;;;;17.00;99.90;;;;;;5095941;28;19981;-84
2022/07/09 02:10:02;;;;;;;;;;;17.00;99.90;;;;;;5113011;28;19924;-84
2022/07/09 02:12:28;;;;;;;;;;;17.00;99.90;;;;;;5095871;28;19932;-84
2022/07/09 02:14:53;;;;;;;;;;;17.10;99.90;;;;;;5095578;28;19924;-83
2022/07/09 02:17:19;;;;;;;;;;;17.10;99.90;;;;;;5095819;28;20375;-84
2022/07/09 02:19:44;;;;;;;;;;;17.10;99.90;;;;;;5078875;28;20035;-83
2022/07/09 02:22:10;;;;;;;;;;;17.10;99.90;;;;;;5096492;28;19985;-85
2022/07/09 02:24:36;;;;;;;;;;;17.10;99.90;;;;;;5095568;28;20383;-84
2022/07/09 02:27:01;;;;;;;;;;;17.10;99.90;;;;;;5095647;28;19924;-84
2022/07/09 02:29:27;;;;;;;;;;;17.10;99.90;;;;;;5079002;28;20284;-84
2022/07/09 02:31:54;;;;;;;;;;;17.10;99.90;;;;;;5078940;28;19974;-84
2022/07/09 02:34:21;;;;;;;;;;;17.10;99.90;;;;;;5078533;28;20303;-84
2022/07/09 02:36:46;;;;;;;;;;;17.10;99.90;;;;;;5078535;28;19935;-83
2022/07/09 02:39:12;;;;;;;;;;;17.10;99.90;;;;;;5095347;28;19924;-84
2022/07/09 02:41:37;;;;;;;;;;;17.10;99.90;;;;;;5078546;28;19934;-83
2022/07/09 02:44:03;;;;;;;;;;;17.10;99.90;;;;;;5078021;28;20249;-84
2022/07/09 02:46:29;;;;;;;;;;;17.00;99.90;;;;;;5095242;28;20302;-83
2022/07/09 02:48:54;;;;;;;;;;;17.00;99.90;;;;;;5094860;28;20026;-83
2022/07/09 02:51:20;;;;;;;;;;;17.00;99.90;;;;;;5078075;28;19928;-84
2022/07/09 02:53:45;;;;;;;;;;;17.00;99.90;;;;;;5095952;28;20019;-83
2022/07/09 02:56:11;;;;;;;;;;;17.00;99.90;;;;;;5077894;28;20019;-84
2022/07/09 02:58:37;;;;;;;;;;;17.00;99.90;;;;;;5078180;28;19924;-83
2022/07/09 03:01:05;;;;;;;;;;;17.00;99.90;;;;;;5095744;28;19984;-84
2022/07/09 03:03:31;;;;;;;;;;;17.00;99.90;;;;;;5078448;28;19928;-84
2022/07/09 03:05:56;;;;;;;;;;;17.00;99.90;;;;;;5077614;28;19928;-83
2022/07/09 03:08:22;;;;;;;;;;;17.00;99.90;;;;;;5077635;28;19984;-84
2022/07/09 03:10:51;;;;;;;;;;;17.00;99.90;;;;;;5095134;28;20007;-84
2022/07/09 03:13:17;;;;;;;;;;;17.00;99.90;;;;;;5077998;28;19946;-84
2022/07/09 03:15:43;;;;;;;;;;;17.00;99.90;;;;;;5077832;28;19924;-84
2022/07/09 03:18:08;;;;;;;;;;;16.90;99.90;;;;;;5095371;28;19924;-84
2022/07/09 03:20:37;;;;;;;;;;;17.00;99.90;;;;;;5095349;28;20011;-84
2022/07/09 03:23:06;;;;;;;;;;;17.00;99.90;;;;;;5094766;28;19938;-84
2022/07/09 03:25:31;;;;;;;;;;;16.90;99.90;;;;;;5077879;28;19931;-84
2022/07/09 03:27:57;;;;;;;;;;;16.90;99.90;;;;;;5094416;28;19923;-83
2022/07/09 03:30:26;;;;;;;;;;;16.90;99.90;;;;;;5094377;28;19924;-84
2022/07/09 03:32:51;;;;;;;;;;;16.90;99.90;;;;;;5095213;28;19924;-84
2022/07/09 03:35:17;;;;;;;;;;;17.00;99.90;;;;;;5093731;28;20338;-84
2022/07/09 03:37:43;;;;;;;;;;;17.00;99.90;;;;;;5077291;28;19924;-84
2022/07/09 03:40:09;;;;;;;;;;;17.00;99.90;;;;;;5077588;28;19930;-84
2022/07/09 03:42:34;;;;;;;;;;;17.00;99.90;;;;;;5077277;28;20304;-84
2022/07/09 03:45:00;;;;;;;;;;;17.00;99.90;;;;;;5093347;28;19924;-83
2022/07/09 03:47:26;;;;;;;;;;;16.90;99.90;;;;;;5077285;28;19928;-84
2022/07/09 03:49:51;;;;;;;;;;;17.00;99.90;;;;;;5094232;28;19924;-84
2022/07/09 03:52:17;;;;;;;;;;;17.00;99.90;;;;;;5077351;28;20273;-84
2022/07/09 03:54:43;;;;;;;;;;;17.00;99.90;;;;;;5076895;28;19924;-84
2022/07/09 03:57:09;;;;;;;;;;;17.00;99.90;;;;;;5076945;28;20006;-84
2022/07/09 03:59:34;;;;;;;;;;;16.90;99.90;;;;;;5076875;28;20328;-83
2022/07/09 04:02:00;;;;;;;;;;;17.00;99.90;;;;;;5076513;28;19930;-83
2022/07/09 04:04:25;;;;;;;;;;;16.90;99.90;;;;;;5076451;28;20286;-83
2022/07/09 04:06:51;;;;;;;;;;;17.00;99.90;;;;;;5093766;28;20007;-83
2022/07/09 04:09:17;;;;;;;;;;;16.90;99.90;;;;;;5093622;28;19928;-83
2022/07/09 04:11:42;;;;;;;;;;;16.90;99.90;;;;;;5093642;28;19924;-83
2022/07/09 04:14:08;;;;;;;;;;;17.00;99.90;;;;;;5076872;28;20272;-84
2022/07/09 04:16:33;;;;;;;;;;;17.00;99.90;;;;;;5076274;28;19977;-84
2022/07/09 04:18:59;;;;;;;;;;;17.10;99.90;;;;;;5093353;28;20081;-84
2022/07/09 04:21:25;;;;;;;;;;;17.10;99.90;;;;;;5076478;28;19924;-84
2022/07/09 04:23:51;;;;;;;;;;;17.10;99.90;;;;;;5093450;28;19924;-84
2022/07/09 04:26:18;;;;;;;;;;;17.20;99.90;;;;;;5076505;28;19923;-84
2022/07/09 04:28:44;;;;;;;;;;;17.20;99.90;;;;;;5093359;28;19931;-84
2022/07/09 04:31:10;;;;;;;;;;;17.20;99.90;;;;;;5093481;28;19924;-84
2022/07/09 04:33:35;;;;;;;;;;;17.20;99.90;;;;;;5093277;28;20369;-84
2022/07/09 04:36:01;;;;;;;;;;;17.20;99.90;;;;;;5093118;28;19930;-84
2022/07/09 04:38:26;;;;;;;;;;;17.30;99.90;;;;;;5076289;28;19924;-84
2022/07/09 04:40:52;;;;;;;;;;;17.30;99.90;;;;;;5076282;28;19924;-85
2022/07/09 04:43:18;;;;;;;;;;;17.30;99.90;;;;;;5076167;28;19924;-85
2022/07/09 04:45:43;;;;;;;;;;;17.30;99.90;;;;;;5093526;28;19924;-85
2022/07/09 04:48:09;;;;;;;;;;;17.30;99.90;;;;;;5077062;28;19924;-83
2022/07/09 04:50:35;;;;;;;;;;;17.40;99.90;;;;;;5092778;28;19928;-84
2022/07/09 04:53:00;;;;;;;;;;;17.40;99.90;;;;;;5093022;28;19973;-84
2022/07/09 04:55:26;;;;;;;;;;;17.40;99.90;;;;;;5092829;28;19928;-84
2022/07/09 04:57:51;;;;;;;;;;;17.40;99.90;;;;;;5076846;28;19924;-85
2022/07/09 05:00:17;;;;;;;;;;;17.50;99.90;;;;;;5075751;28;19924;-86
2022/07/09 05:02:43;;;;;;;;;;;17.50;99.90;;;;;;5092955;28;19931;-85
2022/07/09 05:05:09;;;;;;;;;;;17.50;99.90;;;;;;5092657;28;19975;-84
2022/07/09 05:07:35;;;;;;;;;;;17.50;99.90;;;;;;5076836;28;19982;-85
2022/07/09 05:10:01;;;;;;;;;;;17.50;99.90;;;;;;5092923;28;19931;-83
2022/07/09 05:12:27;;;;;;;;;;;17.50;99.90;;;;;;5075935;28;19928;-84
2022/07/09 05:14:56;;;;;;;;;;;17.50;99.90;;;;;;5092297;28;20380;-84
2022/07/09 05:17:22;;;;;;;;;;;17.50;99.90;;;;;;5075892;28;20291;-86
2022/07/09 05:19:48;;;;;;;;;;;17.60;99.90;;;;;;5092845;28;19974;-84
2022/07/09 05:22:13;;;;;;;;;;;17.50;99.90;;;;;;5076057;28;19928;-85
2022/07/09 05:24:40;;;;;;;;;;;17.60;99.90;;;;;;5092840;28;20024;-86
2022/07/09 05:27:06;;;;;;;;;;;17.60;99.90;;;;;;5076457;28;19931;-86
2022/07/09 05:29:32;;;;;;;;;;;17.60;99.90;;;;;;5059245;28;20001;-86
2022/07/09 05:31:57;;;;;;;;;;;17.60;99.90;;;;;;5092786;28;19935;-86
2022/07/09 05:34:23;;;;;;;;;;;17.60;99.90;;;;;;5075808;28;20011;-86
2022/07/09 05:36:51;;;;;;;;;;;17.60;99.90;;;;;;5075845;28;20031;-86
2022/07/09 05:39:17;;;;;;;;;;;17.60;99.90;;;;;;5076112;28;19939;-85
2022/07/09 05:41:43;;;;;;;;;;;17.60;99.90;;;;;;5075757;28;19993;-86
2022/07/09 05:44:09;;;;;;;;;;;17.60;99.90;;;;;;5075785;28;19982;-86
2022/07/09 05:46:35;;;;;;;;;;;17.60;99.90;;;;;;5076152;28;20273;-86
2022/07/09 05:49:00;;;;;;;;;;;17.60;99.90;;;;;;5092856;28;19928;-86
2022/07/09 05:51:26;;;;;;;;;;;17.70;99.90;;;;;;5092774;28;20340;-86
2022/07/09 05:53:52;;;;;;;;;;;17.70;99.90;;;;;;5092689;28;19998;-86
2022/07/09 05:56:18;;;;;;;;;;;17.70;99.90;;;;;;5092247;28;20015;-85
2022/07/09 05:58:44;;;;;;;;;;;17.70;99.90;;;;;;5075859;28;19957;-85
2022/07/09 06:01:09;;;;;;;;;;;17.70;99.90;;;;;;5093154;28;19924;-89
2022/07/09 06:03:35;;;;;;;;;;;17.80;99.90;;;;;;5076294;28;19935;-88
2022/07/09 06:06:00;;;;;;;;;;;17.80;99.90;;;;;;5077054;28;19932;-89
2022/07/09 06:08:26;;;;;;;;;;;17.80;99.90;;;;;;5077009;28;19979;-87
2022/07/09 06:10:52;;;;;;;;;;;17.80;99.90;;;;;;5093810;28;19924;-81
2022/07/09 06:13:18;;;;;;;;;;;17.70;99.90;;;;;;5079186;28;20279;-85
2022/07/09 06:15:43;;;;;;;;;;;17.80;99.90;;;;;;5096148;28;19932;-89
2022/07/09 06:18:09;;;;;;;;;;;17.80;99.90;;;;;;5079640;28;20394;-89
2022/07/09 06:20:34;;;;;;;;;;;17.80;99.90;;;;;;5079642;28;19983;-87
2022/07/09 06:23:00;;;;;;;;;;;17.80;99.90;;;;;;5079017;28;20357;-87
2022/07/09 06:25:25;;;;;;;;;;;17.70;99.90;;;;;;5078926;28;19935;-86
2022/07/09 06:27:51;;;;;;;;;;;17.80;99.90;;;;;;5078568;28;19931;-87
2022/07/09 06:30:17;;;;;;;;;;;17.80;99.90;;;;;;5078420;28;19924;-87
2022/07/09 06:32:42;;;;;;;;;;;17.80;99.90;;;;;;5095641;28;20027;-84
2022/07/09 06:35:08;;;;;;;;;;;17.80;99.90;;;;;;5078742;28;20010;-85
2022/07/09 06:37:33;;;;;;;;;;;17.80;99.90;;;;;;5095511;28;20029;-85
2022/07/09 06:39:59;;;;;;;;;;;17.80;99.90;;;;;;5096419;28;20023;-87
2022/07/09 06:42:25;;;;;;;;;;;17.70;99.90;;;;;;5095666;28;20313;-87
2022/07/09 06:44:50;;;;;;;;;;;17.80;99.90;;;;;;5078045;28;19924;-86
2022/07/09 06:47:16;;;;;;;;;;;17.80;99.90;;;;;;5095821;28;19982;-85
2022/07/09 06:49:42;;;;;;;;;;;17.80;99.90;;;;;;5078476;28;19974;-86
2022/07/09 06:52:07;;;;;;;;;;;17.80;99.90;;;;;;5112719;28;19978;-85
2022/07/09 06:54:34;;;;;;;;;;;17.80;99.90;;;;;;5095763;28;19931;-86
2022/07/09 06:56:59;;;;;;;;;;;17.80;99.90;;;;;;5096117;28;20019;-83
2022/07/09 06:59:25;;;;;;;;;;;17.80;99.90;;;;;;5095910;28;19981;-86
2022/07/09 07:01:51;;;;;;;;;;;17.90;99.90;;;;;;5095825;28;19924;-87
2022/07/09 07:04:16;;;;;;;;;;;17.90;99.90;;;;;;5078121;28;19978;-86
2022/07/09 07:06:42;;;;;;;;;;;17.90;99.90;;;;;;5095072;28;19924;-87
2022/07/09 07:09:08;;;;;;;;;;;18.00;99.90;;;;;;5078481;28;19924;-86
2022/07/09 07:11:34;;;;;;;;;;;18.20;99.90;;;;;;5095189;28;19924;-86
2022/07/09 07:14:00;;;;;;;;;;;18.30;99.90;;;;;;5095574;28;19947;-85
2022/07/09 07:16:26;;;;;;;;;;;18.30;99.90;;;;;;5094431;28;20368;-86
2022/07/09 07:18:52;;;;;;;;;;;18.40;99.90;;;;;;5094951;28;20035;-85
2022/07/09 07:21:17;;;;;;;;;;;18.60;99.90;;;;;;5077683;28;19924;-86
2022/07/09 07:23:43;;;;;;;;;;;18.50;99.90;;;;;;5094531;28;19931;-86
2022/07/09 07:26:08;;;;;;;;;;;18.60;99.90;;;;;;5077830;28;19924;-81
2022/07/09 07:28:34;;;;;;;;;;;18.60;99.90;;;;;;5077485;28;19924;-82
2022/07/09 07:30:59;;;;;;;;;;;18.60;99.90;;;;;;5077760;28;19924;-84
2022/07/09 07:33:25;;;;;;;;;;;18.60;99.90;;;;;;5094718;28;19924;-86
2022/07/09 07:35:51;;;;;;;;;;;18.70;99.90;;;;;;5093790;28;20261;-86
2022/07/09 07:38:16;;;;;;;;;;;18.80;99.90;;;;;;5094423;28;19972;-86
2022/07/09 07:40:42;;;;;;;;;;;18.80;99.90;;;;;;5077383;28;19974;-86
2022/07/09 07:43:10;;;;;;;;;;;18.90;99.90;;;;;;5079922;28;19931;-85
2022/07/09 07:45:36;;;;;;;;;;;19.10;99.90;;;;;;5081152;28;19970;-86
2022/07/09 07:48:01;;;;;;;;;;;19.20;99.90;;;;;;5080455;28;20370;-86
2022/07/09 07:50:27;;;;;;;;;;;19.30;99.90;;;;;;5096727;28;19924;-86
2022/07/09 07:52:52;;;;;;;;;;;19.20;99.90;;;;;;5079918;28;19980;-84
2022/07/09 07:55:18;;;;;;;;;;;19.20;99.90;;;;;;5079916;28;19931;-84
2022/07/09 07:57:43;;;;;;;;;;;19.30;99.90;;;;;;5080004;28;20271;-85
2022/07/09 08:00:09;;;;;;;;;;;19.20;99.90;;;;;;5097035;28;19929;-85
2022/07/09 08:02:35;;;;;;;;;;;19.20;99.90;;;;;;5097538;28;19992;-85
2022/07/09 08:05:01;;;;;;;;;;;19.20;99.90;;;;;;5096994;28;19923;-87
2022/07/09 08:07:26;;;;;;;;;;;19.10;99.90;;;;;;5080246;28;19935;-87
2022/07/09 08:09:52;;;;;;;;;;;19.10;99.90;;;;;;5079720;28;19931;-87
2022/07/09 08:12:18;;;;;;;;;;;19.10;99.90;;;;;;5080790;28;19930;-86
2022/07/09 08:14:43;;;;;;;;;;;19.10;99.90;;;;;;5079932;28;20337;-84
2022/07/09 08:17:09;;;;;;;;;;;19.10;99.90;;;;;;5079939;28;19924;-84
2022/07/09 08:19:34;;;;;;;;;;;19.20;99.90;;;;;;5062916;28;19991;-84
2022/07/09 08:22:00;;;;;;;;;;;19.20;99.90;;;;;;5079877;28;20065;-85
2022/07/09 08:24:26;;;;;;;;;;;19.30;99.90;;;;;;5079844;28;19949;-84
2022/07/09 08:26:52;;;;;;;;;;;19.30;99.90;;;;;;5080331;28;19968;-83
2022/07/09 08:29:18;;;;;;;;;;;19.30;99.90;;;;;;5079637;28;19974;-85
2022/07/09 08:31:44;;;;;;;;;;;19.20;99.90;;;;;;5079452;28;19930;-80
2022/07/09 08:34:09;;;;;;;;;;;19.40;99.90;;;;;;5095668;28;19930;-80
2022/07/09 08:36:35;;;;;;;;;;;19.40;99.90;;;;;;5063121;28;19969;-81
2022/07/09 08:39:01;;;;;;;;;;;19.30;99.90;;;;;;5096558;28;19926;-82
2022/07/09 08:41:26;;;;;;;;;;;19.50;99.90;;;;;;5062699;28;19986;-81
2022/07/09 08:43:52;;;;;;;;;;;19.50;99.90;;;;;;5079019;28;19928;-79
2022/07/09 08:46:18;;;;;;;;;;;19.60;99.90;;;;;;5130195;27;19924;-84
2022/07/09 08:48:44;;;;;;;;;;;19.70;99.90;;;;;;5096185;28;19924;-83
2022/07/09 08:51:10;;;;;;;;;;;19.50;99.90;;;;;;5096386;28;19977;-83
2022/07/09 08:53:39;;;;;;;;;;;19.60;99.90;;;;;;5096492;28;19928;-88
2022/07/09 08:56:05;;;;;;;;;;;19.60;99.90;;;;;;5079946;28;20003;-88
2022/07/09 08:58:31;;;;;;;;;;;19.70;99.90;;;;;;5063979;28;20014;-85
2022/07/09 09:00:58;;;;;;;;;;;19.70;99.90;;;;;;5096104;28;19924;-85
2022/07/09 09:03:23;;;;;;;;;;;19.80;99.90;;;;;;5096320;28;19931;-86
2022/07/09 09:06:02;;;;;;;;;;;19.80;99.90;;;;;;5080292;28;19952;-86
2022/07/09 09:08:27;;;;;;;;;;;19.80;99.90;;;;;;5079379;28;19931;-85
2022/07/09 09:10:53;;;;;;;;;;;19.90;99.90;;;;;;5062930;28;19920;-88
2022/07/09 09:13:19;;;;;;;;;;;19.90;99.90;;;;;;5062976;28;19924;-87
2022/07/09 09:15:44;;;;;;;;;;;20.00;99.90;;;;;;5062811;28;19924;-85
2022/07/09 09:18:10;;;;;;;;;;;20.00;99.90;;;;;;5096538;28;19930;-82
2022/07/09 09:20:36;;;;;;;;;;;20.10;99.90;;;;;;5078698;28;19984;-85
2022/07/09 09:23:04;;;;;;;;;;;20.10;99.90;;;;;;5079219;28;19931;-82
2022/07/09 09:25:30;;;;;;;;;;;20.10;99.90;;;;;;5078680;28;19924;-83
2022/07/09 09:27:59;;;;;;;;;;;20.10;99.90;;;;;;5078653;28;20379;-83
2022/07/09 09:30:25;;;;;;;;;;;20.10;99.90;;;;;;5095845;28;20014;-85
2022/07/09 09:32:56;;;;;;;;;;;20.00;99.90;;;;;;5079622;28;19924;-79
2022/07/09 09:35:22;;;;;;;;;;;19.70;99.90;;;;;;5078710;28;19924;-82
2022/07/09 09:37:48;;;;;;;;;;;19.40;99.90;;;;;;5112420;28;19924;-82
2022/07/09 09:40:14;;;;;;;;;;;19.20;99.90;;;;;;5095958;28;19975;-82
2022/07/09 09:42:40;;;;;;;;;;;19.10;99.90;;;;;;5096290;28;19978;-84
2022/07/09 09:45:06;;;;;;;;;;;18.90;99.90;;;;;;5097264;28;19923;-83
2022/07/09 09:47:32;;;;;;;;;;;18.80;99.90;;;;;;5099342;28;19973;-82
2022/07/09 09:50:00;;;;;;;;;;;18.70;99.90;;;;;;5082845;28;19979;-82
2022/07/09 09:52:26;;;;;;;;;;;18.60;99.90;;;;;;5082315;28;20292;-83
2022/07/09 09:54:52;;;;;;;;;;;18.60;99.90;;;;;;5082319;28;20073;-81
2022/07/09 09:57:17;;;;;;;;;;;18.60;99.90;;;;;;5099309;28;20010;-83
2022/07/09 09:59:47;;;;;;;;;;;18.60;99.90;;;;;;5082379;28;20032;-83
2022/07/09 10:02:12;;;;;;;;;;;18.70;99.90;;;;;;5099182;28;19924;-83
2022/07/09 10:04:39;;;;;;;;;;;18.80;99.90;;;;;;5099209;28;19974;-84
2022/07/09 10:07:06;;;;;;;;;;;19.00;99.90;;;;;;5099180;28;19924;-81
2022/07/09 10:09:32;;;;;;;;;;;19.20;99.90;;;;;;5098984;28;20383;-81
2022/07/09 10:11:58;;;;;;;;;;;19.30;99.90;;;;;;5082298;28;20060;-82
2022/07/09 10:14:23;;;;;;;;;;;19.30;99.90;;;;;;5116020;28;19967;-80
2022/07/09 10:16:50;;;;;;;;;;;19.40;99.90;;;;;;5099303;28;19976;-82
2022/07/09 10:19:25;;;;;;;;;;;19.40;99.90;;;;;;5081744;28;20014;-84
2022/07/09 10:21:52;;;;;;;;;;;19.50;99.90;;;;;;5098595;28;19924;-84
2022/07/09 10:24:23;;;;;;;;;;;19.60;99.90;;;;;;5081998;28;20410;-83
2022/07/09 10:26:49;;;;;;;;;;;19.60;99.90;;;;;;5082572;28;19924;-82
2022/07/09 10:29:22;;;;;;;;;;;19.70;99.90;;;;;;5098665;28;19919;-82
2022/07/09 10:31:47;;;;;;;;;;;19.70;99.90;;;;;;5099372;28;19963;-84
2022/07/09 10:34:33;;;;;;;;;;;19.70;99.90;;;;;;5065061;28;19986;-84
2022/07/09 10:36:59;;;;;;;;;;;19.70;99.90;;;;;;5041188;28;20018;-84
2022/07/09 10:39:25;;;;;;;;;;;19.70;99.90;;;;;;5081865;28;19927;-82
2022/07/09 10:42:06;;;;;;;;;;;19.80;99.90;;;;;;5081664;28;19931;-83
2022/07/09 10:44:35;;;;;;;;;;;19.90;99.90;;;;;;5081232;28;19920;-81
2022/07/09 10:47:02;;;;;;;;;;;20.00;99.90;;;;;;5098348;28;20014;-85
2022/07/09 10:49:27;;;;;;;;;;;20.00;99.90;;;;;;5132407;27;20382;-85
2022/07/09 10:51:59;;;;;;;;;;;20.00;99.90;;;;;;5097785;28;19923;-85
2022/07/09 10:54:25;;;;;;;;;;;20.10;99.90;;;;;;5081505;28;19924;-85
2022/07/09 10:56:51;;;;;;;;;;;20.30;99.90;;;;;;5080911;28;20329;-84
2022/07/09 10:59:20;;;;;;;;;;;20.40;99.90;;;;;;5081326;28;19928;-81
2022/07/09 11:01:45;;;;;;;;;;;20.50;99.90;;;;;;5080877;28;19924;-82
2022/07/09 11:04:12;;;;;;;;;;;20.50;99.90;;;;;;5081171;28;20003;-85
2022/07/09 11:06:44;;;;;;;;;;;20.40;99.90;;;;;;5064507;28;19924;-86
2022/07/09 11:09:13;;;;;;;;;;;20.40;99.90;;;;;;5081136;28;19924;-85
2022/07/09 11:11:43;;;;;;;;;;;20.60;99.90;;;;;;5081790;28;19923;-84
2022/07/09 11:14:09;;;;;;;;;;;20.60;99.90;;;;;;5081273;28;19931;-85
2022/07/09 11:16:35;;;;;;;;;;;20.70;99.90;;;;;;5081504;28;19928;-88
2022/07/09 11:19:21;;;;;;;;;;;20.80;99.90;;;;;;5081499;28;19992;-89
2022/07/09 11:21:47;;;;;;;;;;;20.90;99.90;;;;;;5080682;28;20031;-89
2022/07/09 11:24:19;;;;;;;;;;;21.10;99.90;;;;;;5081207;28;19946;-84
2022/07/09 11:26:47;;;;;;;;;;;21.00;99.90;;;;;;5080502;28;19920;-83
2022/07/09 11:29:13;;;;;;;;;;;20.90;99.90;;;;;;5080657;28;19923;-82
2022/07/09 11:31:51;;;;;;;;;;;21.10;99.90;;;;;;5098200;28;20348;-85
2022/07/09 11:34:17;;;;;;;;;;;21.20;99.90;;;;;;5081402;28;20010;-81
2022/07/09 11:36:44;;;;;;;;;;;21.30;99.90;;;;;;5064574;28;20320;-85
2022/07/09 11:39:10;;;;;;;;;;;21.30;99.90;;;;;;5064103;28;19971;-83
2022/07/09 11:41:45;;;;;;;;;;;21.70;99.90;;;;;;5064055;28;19967;-80
2022/07/09 11:44:14;;;;;;;;;;;21.80;99.90;;;;;;5080121;28;19946;-82
2022/07/09 11:46:40;;;;;;;;;;;21.90;99.90;;;;;;5064330;28;19990;-80
2022/07/09 11:49:13;;;;;;;;;;;22.10;99.90;;;;;;5080594;28;19931;-81
2022/07/09 11:51:39;;;;;;;;;;;22.10;99.90;;;;;;5081460;28;19943;-79
2022/07/09 11:54:05;;;;;;;;;;;22.10;99.90;;;;;;5080377;28;19947;-80
2022/07/09 11:56:45;;;;;;;;;;;22.30;99.90;;;;;;5097001;28;19968;-78
2022/07/09 11:59:11;;;;;;;;;;;22.30;99.90;;;;;;5080242;28;19924;-81
2022/07/09 12:01:37;;;;;;;;;;;22.50;99.90;;;;;;5097328;28;19971;-82
2022/07/09 12:04:03;;;;;;;;;;;22.40;99.90;;;;;;5079697;28;19924;-80
2022/07/09 12:06:29;;;;;;;;;;;22.50;99.90;;;;;;5080052;28;19999;-81
2022/07/09 12:09:01;;;;;;;;;;;22.80;99.90;;;;;;5079237;28;20260;-83
2022/07/09 12:11:27;;;;;;;;;;;23.00;99.90;;;;;;5079818;28;19931;-82
2022/07/09 12:13:53;;;;;;;;;;;22.80;99.90;;;;;;5079750;28;19931;-81
2022/07/09 12:16:18;;;;;;;;;;;22.80;99.90;;;;;;5096198;28;19924;-82
2022/07/09 12:18:44;;;;;;;;;;;22.70;99.90;;;;;;5079985;28;19930;-83
2022/07/09 12:21:10;;;;;;;;;;;22.50;99.90;;;;;;5079685;28;19924;-84
2022/07/09 12:23:36;;;;;;;;;;;22.30;99.90;;;;;;5096093;28;19939;-83
2022/07/09 12:26:01;;;;;;;;;;;22.10;99.90;;;;;;5080374;28;19923;-84
2022/07/09 12:28:27;;;;;;;;;;;21.60;99.90;;;;;;5062829;28;20016;-83
2022/07/09 12:30:52;;;;;;;;;;;21.80;99.90;;;;;;5080278;28;19924;-91
2022/07/09 12:33:18;;;;;;;;;;;21.60;99.90;;;;;;5079620;28;19981;-84
2022/07/09 12:35:44;;;;;;;;;;;21.80;99.90;;;;;;5062940;28;19988;-86
2022/07/09 12:38:09;;;;;;;;;;;21.80;99.90;;;;;;5079405;28;19946;-83
2022/07/09 12:40:35;;;;;;;;;;;21.60;99.90;;;;;;5062983;28;19977;-84
2022/07/09 12:43:01;;;;;;;;;;;21.80;99.90;;;;;;5062461;28;20341;-84
2022/07/09 12:45:27;;;;;;;;;;;21.80;99.90;;;;;;5113112;28;19935;-84
2022/07/09 12:47:52;;;;;;;;;;;21.90;99.90;;;;;;5079574;28;20023;-85
2022/07/09 12:50:18;;;;;;;;;;;21.60;99.90;;;;;;5079246;28;19923;-81
2022/07/09 12:52:43;;;;;;;;;;;22.10;99.90;;;;;;5079325;28;20335;-83
2022/07/09 12:55:09;;;;;;;;;;;22.40;99.90;;;;;;5096167;28;19927;-84
2022/07/09 12:57:35;;;;;;;;;;;22.30;99.90;;;;;;5096350;28;19928;-83
2022/07/09 13:00:02;;;;;;;;;;;22.20;99.90;;;;;;5062855;28;19923;-86
2022/07/09 13:02:27;;;;;;;;;;;22.20;99.90;;;;;;5079475;28;19923;-86
2022/07/09 13:04:53;;;;;;;;;;;21.70;99.90;;;;;;5062514;28;19924;-85
2022/07/09 13:07:19;;;;;;;;;;;21.30;99.90;;;;;;5062125;28;19920;-85
2022/07/09 13:09:44;;;;;;;;;;;21.00;99.90;;;;;;5079307;28;19924;-83
2022/07/09 13:12:10;;;;;;;;;;;20.70;99.90;;;;;;5062772;28;19924;-85
2022/07/09 13:14:35;;;;;;;;;;;20.30;99.90;;;;;;5079628;28;19924;-82
2022/07/09 13:17:01;;;;;;;;;;;19.80;99.90;;;;;;5079180;28;19924;-84
2022/07/09 13:19:27;;;;;;;;;;;19.50;99.90;;;;;;5079932;28;19977;-83
2022/07/09 13:21:52;;;;;;;;;;;19.60;99.90;;;;;;5083153;28;19923;-85
2022/07/09 13:24:18;;;;;;;;;;;19.70;99.90;;;;;;5066406;28;19931;-90
2022/07/09 13:26:43;;;;;;;;;;;20.10;99.90;;;;;;5066348;28;19930;-87
2022/07/09 13:29:09;;;;;;;;;;;20.10;99.90;;;;;;5066357;28;20360;-85
2022/07/09 13:31:34;;;;;;;;;;;20.30;99.90;;;;;;5066311;28;19977;-87
2022/07/09 13:34:00;;;;;;;;;;;20.70;99.90;;;;;;5099988;28;20015;-85
2022/07/09 13:36:26;;;;;;;;;;;20.80;99.90;;;;;;5082327;28;19935;-82
2022/07/09 13:38:51;;;;;;;;;;;20.70;99.90;;;;;;5082980;28;19931;-87
2022/07/09 13:41:18;;;;;;;;;;;20.80;99.90;;;;;;5082695;28;19923;-87
2022/07/09 13:43:46;;;;;;;;;;;21.20;99.90;;;;;;5066617;28;19923;-88
2022/07/09 13:46:12;;;;;;;;;;;21.30;99.90;;;;;;5083314;28;19977;-89
2022/07/09 13:48:38;;;;;;;;;;;21.50;99.90;;;;;;5066966;28;19927;-90
2022/07/09 13:51:04;;;;;;;;;;;21.50;99.90;;;;;;5083374;28;19931;-90
2022/07/09 13:53:31;;;;;;;;;;;21.50;99.90;;;;;;5134395;27;20359;-88
2022/07/09 13:55:57;;;;;;;;;;;21.10;99.90;;;;;;5133574;27;19935;-86
2022/07/09 13:58:23;;;;;;;;;;;21.10;99.90;;;;;;5082704;28;19954;-91
2022/07/09 14:00:48;;;;;;;;;;;21.00;99.90;;;;;;5083584;28;19927;-90
2022/07/09 14:03:14;;;;;;;;;;;21.10;99.90;;;;;;5082724;28;19924;-90
2022/07/09 14:05:39;;;;;;;;;;;21.50;99.90;;;;;;5082730;28;19923;-86
2022/07/09 14:08:05;;;;;;;;;;;21.50;99.90;;;;;;5082517;28;19947;-88
2022/07/09 14:10:32;;;;;;;;;;;21.30;99.90;;;;;;5099957;28;19972;-90